createdAt,value
2018-07-26T00:01:02.938Z,101600.02
2018-07-26T00:03:32.064Z,101599.52
2018-07-26T00:06:01.156Z,101599.52
2018-07-26T00:08:30.290Z,101603.23
2018-07-26T00:10:59.320Z,101603.23
2018-07-26T00:13:28.382Z,101598.56
2018-07-26T00:15:57.476Z,101596.67
2018-07-26T00:18:26.538Z,101599.42
2018-07-26T00:20:55.598Z,101595.95
2018-07-26T00:23:24.643Z,101594.09
2018-07-26T00:25:53.848Z,101596.94
2018-07-26T00:28:23.071Z,101600.84
2018-07-26T00:30:52.264Z,101606.77
2018-07-26T00:33:21.472Z,101601.07
2018-07-26T00:35:50.580Z,101603.28
2018-07-26T00:38:19.651Z,101604.05
2018-07-26T00:40:48.856Z,101607.63
2018-07-26T00:43:17.898Z,101609.75
2018-07-26T00:45:46.968Z,101608.02
2018-07-26T00:48:16.062Z,101614.63
2018-07-26T00:50:45.176Z,101615.00
2018-07-26T00:53:14.316Z,101611.56
2018-07-26T00:55:43.516Z,101603.78
2018-07-26T00:58:12.698Z,101606.00
2018-07-26T01:00:41.822Z,101602.84
2018-07-26T01:03:10.990Z,101599.27
2018-07-26T01:05:40.194Z,101584.84
2018-07-26T01:08:09.398Z,101597.65
2018-07-26T01:10:38.491Z,101593.21
2018-07-26T01:13:07.673Z,101591.09
2018-07-26T01:15:36.774Z,101588.61
2018-07-26T01:18:05.993Z,101585.99
2018-07-26T01:20:35.082Z,101581.83
2018-07-26T01:23:04.274Z,101584.91
2018-07-26T01:25:33.924Z,101576.77
2018-07-26T01:28:03.076Z,101577.26
2018-07-26T01:30:32.187Z,101576.13
2018-07-26T01:33:01.250Z,101580.52
2018-07-26T01:35:30.406Z,101571.80
2018-07-26T01:37:59.534Z,101577.59
2018-07-26T01:40:28.542Z,101571.80
2018-07-26T01:43:08.890Z,101571.30
2018-07-26T01:45:38.034Z,101577.98
2018-07-26T01:48:07.094Z,101569.84
2018-07-26T01:50:36.200Z,101568.58
2018-07-26T01:53:05.420Z,101567.33
2018-07-26T01:55:34.486Z,101573.25
2018-07-26T01:58:03.695Z,101570.04
2018-07-26T02:00:32.887Z,101569.77
2018-07-26T02:03:04.976Z,101568.41
2018-07-26T02:05:34.271Z,101560.01
2018-07-26T02:08:03.519Z,101557.80
2018-07-26T02:10:32.642Z,101560.08
2018-07-26T02:13:01.719Z,101553.40
2018-07-26T02:15:30.835Z,101562.45
2018-07-26T02:18:00.051Z,101558.52
2018-07-26T02:20:29.143Z,101559.24
2018-07-26T02:22:58.216Z,101554.81
2018-07-26T02:25:27.523Z,101552.69
2018-07-26T02:27:56.639Z,101560.46
2018-07-26T02:30:25.705Z,101553.23
2018-07-26T02:32:54.841Z,101561.38
2018-07-26T02:35:23.896Z,101559.38
2018-07-26T02:37:53.028Z,101561.87
2018-07-26T02:40:22.124Z,101560.42
2018-07-26T02:42:51.265Z,101560.56
2018-07-26T02:45:20.399Z,101557.97
2018-07-26T02:47:49.586Z,101554.86
2018-07-26T02:50:18.759Z,101557.44
2018-07-26T02:52:47.899Z,101555.36
2018-07-26T02:55:16.967Z,101555.68
2018-07-26T02:57:46.080Z,101559.77
2018-07-26T03:00:15.187Z,101553.26
2018-07-26T03:02:44.387Z,101553.21
2018-07-26T03:05:13.503Z,101550.50
2018-07-26T03:07:42.672Z,101551.44
2018-07-26T03:10:11.763Z,101546.70
2018-07-26T03:12:40.930Z,101552.72
2018-07-26T03:15:10.287Z,101548.97
2018-07-26T03:17:39.391Z,101553.44
2018-07-26T03:20:08.531Z,101550.77
2018-07-26T03:22:37.630Z,101541.19
2018-07-26T03:25:06.869Z,101544.90
2018-07-26T03:27:36.046Z,101545.45
2018-07-26T03:30:05.871Z,101540.38
2018-07-26T03:32:35.071Z,101542.95
2018-07-26T03:35:04.277Z,101548.55
2018-07-26T03:37:33.361Z,101543.67
2018-07-26T03:40:02.746Z,101545.30
2018-07-26T03:42:31.856Z,101544.04
2018-07-26T03:45:01.028Z,101545.03
2018-07-26T03:47:30.179Z,101533.05
2018-07-26T03:49:59.251Z,101529.63
2018-07-26T03:52:28.446Z,101532.92
2018-07-26T03:54:57.647Z,101540.47
2018-07-26T03:57:26.762Z,101534.55
2018-07-26T03:59:55.931Z,101536.62
2018-07-26T04:02:25.039Z,101537.75
2018-07-26T04:04:54.249Z,101541.06
2018-07-26T04:07:23.319Z,101533.42
2018-07-26T04:09:52.395Z,101528.86
2018-07-26T04:12:21.549Z,101534.28
2018-07-26T04:14:50.629Z,101539.97
2018-07-26T04:17:19.799Z,101540.79
2018-07-26T04:19:48.907Z,101532.66
2018-07-26T04:22:18.091Z,101531.70
2018-07-26T04:24:47.201Z,101526.96
2018-07-26T04:27:16.392Z,101531.62
2018-07-26T04:29:45.492Z,101532.20
2018-07-26T04:32:14.622Z,101532.88
2018-07-26T04:34:43.864Z,101534.50
2018-07-26T04:37:13.064Z,101532.75
2018-07-26T04:39:42.175Z,101522.13
2018-07-26T04:42:11.269Z,101529.67
2018-07-26T04:44:40.483Z,101522.80
2018-07-26T04:47:09.656Z,101524.79
2018-07-26T04:49:38.763Z,101524.16
2018-07-26T04:52:07.980Z,101525.66
2018-07-26T04:54:37.232Z,101525.92
2018-07-26T04:57:06.558Z,101517.92
2018-07-26T04:59:35.648Z,101521.81
2018-07-26T05:02:04.785Z,101514.54
2018-07-26T05:04:33.877Z,101518.46
2018-07-26T05:07:03.096Z,101523.07
2018-07-26T05:09:32.212Z,101521.13
2018-07-26T05:12:01.379Z,101514.86
2018-07-26T05:14:30.450Z,101514.81
2018-07-26T05:16:59.620Z,101514.98
2018-07-26T05:19:28.712Z,101516.84
2018-07-26T05:21:57.796Z,101521.17
2018-07-26T05:24:26.932Z,101524.79
2018-07-26T05:26:56.132Z,101520.95
2018-07-26T05:29:25.334Z,101517.11
2018-07-26T05:31:54.645Z,101520.95
2018-07-26T05:34:23.712Z,101521.44
2018-07-26T05:36:52.892Z,101521.54
2018-07-26T05:39:21.961Z,101518.11
2018-07-26T05:41:51.142Z,101520.09
2018-07-26T05:44:20.194Z,101520.67
2018-07-26T05:46:49.421Z,101519.00
2018-07-26T05:49:18.488Z,101518.02
2018-07-26T05:51:47.592Z,101518.88
2018-07-26T05:54:16.736Z,101516.16
2018-07-26T05:56:45.886Z,101518.78
2018-07-26T05:59:14.958Z,101518.78
2018-07-26T06:01:44.108Z,101519.91
2018-07-26T06:04:13.198Z,101518.56
2018-07-26T06:06:42.396Z,101523.34
2018-07-26T06:09:12.436Z,101522.89
2018-07-26T06:11:42.042Z,101522.72
2018-07-26T06:14:11.132Z,101518.97
2018-07-26T06:16:40.288Z,101520.00
2018-07-26T06:19:09.487Z,101518.87
2018-07-26T06:21:38.574Z,101521.09
2018-07-26T06:24:07.646Z,101512.95
2018-07-26T06:26:36.764Z,101516.88
2018-07-26T06:29:06.144Z,101513.36
2018-07-26T06:31:57.538Z,101511.95
2018-07-26T06:34:26.616Z,101511.55
2018-07-26T06:36:55.718Z,101502.02
2018-07-26T06:39:24.916Z,101507.81
2018-07-26T06:41:54.084Z,101508.98
2018-07-26T06:44:23.194Z,101507.66
2018-07-26T06:46:52.396Z,101511.19
2018-07-26T06:49:21.571Z,101505.34
2018-07-26T06:51:50.775Z,101502.70
2018-07-26T06:54:19.868Z,101499.17
2018-07-26T06:56:48.942Z,101493.02
2018-07-26T06:59:18.053Z,101490.34
2018-07-26T07:01:47.171Z,101489.65
2018-07-26T07:04:16.416Z,101494.61
2018-07-26T07:06:51.238Z,101490.74
2018-07-26T07:09:20.360Z,101496.23
2018-07-26T07:11:49.490Z,101495.40
2018-07-26T07:14:18.798Z,101498.37
2018-07-26T07:16:48.004Z,101492.22
2018-07-26T07:19:17.191Z,101490.86
2018-07-26T07:21:46.343Z,101488.25
2018-07-26T07:24:20.490Z,101486.45
2018-07-26T07:26:51.271Z,101488.63
2018-07-26T07:29:21.471Z,101492.36
2018-07-26T07:31:50.646Z,101491.52
2018-07-26T07:34:19.865Z,101492.14
2018-07-26T07:36:49.015Z,101493.76
2018-07-26T07:39:18.120Z,101485.77
2018-07-26T07:41:47.367Z,101488.64
2018-07-26T07:44:16.742Z,101489.62
2018-07-26T07:46:45.903Z,101488.05
2018-07-26T07:49:15.032Z,101484.59
2018-07-26T07:51:44.747Z,101485.35
2018-07-26T07:54:13.939Z,101481.42
2018-07-26T07:56:43.142Z,101485.26
2018-07-26T07:59:12.307Z,101485.76
2018-07-26T08:01:41.390Z,101487.13
2018-07-26T08:04:10.638Z,101487.24
2018-07-26T08:06:39.797Z,101489.64
2018-07-26T08:09:11.122Z,101478.56
2018-07-26T08:11:40.548Z,101480.94
2018-07-26T08:14:10.308Z,101482.55
2018-07-26T08:16:39.478Z,101484.16
2018-07-26T08:19:08.622Z,101479.23
2018-07-26T08:21:37.778Z,101480.48
2018-07-26T08:24:06.992Z,101483.31
2018-07-26T08:26:36.172Z,101479.48
2018-07-26T08:29:05.498Z,101485.67
2018-07-26T08:31:34.681Z,101482.95
2018-07-26T08:34:03.792Z,101478.62
2018-07-26T08:36:32.838Z,101477.27
2018-07-26T08:39:01.908Z,101476.66
2018-07-26T08:41:31.104Z,101475.04
2018-07-26T08:44:00.278Z,101471.85
2018-07-26T08:46:29.360Z,101474.17
2018-07-26T08:48:58.473Z,101473.45
2018-07-26T08:51:27.546Z,101475.56
2018-07-26T08:53:56.639Z,101472.27
2018-07-26T08:56:25.726Z,101464.21
2018-07-26T08:58:55.767Z,101462.59
2018-07-26T09:01:24.979Z,101468.17
2018-07-26T09:03:54.144Z,101463.23
2018-07-26T09:06:23.218Z,101467.06
2018-07-26T09:08:52.357Z,101468.41
2018-07-26T09:11:21.565Z,101471.89
2018-07-26T09:13:50.730Z,101466.80
2018-07-26T09:16:19.924Z,101469.02
2018-07-26T09:18:49.015Z,101467.66
2018-07-26T09:21:18.138Z,101458.53
2018-07-26T09:23:47.244Z,101464.83
2018-07-26T09:26:16.323Z,101463.58
2018-07-26T09:28:45.647Z,101460.14
2018-07-26T09:31:14.926Z,101453.95
2018-07-26T09:33:44.007Z,101455.19
2018-07-26T09:36:13.108Z,101452.59
2018-07-26T09:38:42.315Z,101451.73
2018-07-26T09:41:13.349Z,101446.90
2018-07-26T09:43:43.246Z,101446.05
2018-07-26T09:46:12.335Z,101447.41
2018-07-26T09:48:41.408Z,101444.18
2018-07-26T09:51:10.488Z,101442.95
2018-07-26T09:53:39.648Z,101437.14
2018-07-26T09:56:08.879Z,101438.26
2018-07-26T09:58:38.031Z,101432.69
2018-07-26T10:01:12.601Z,101430.58
2018-07-26T10:03:41.755Z,101433.93
2018-07-26T10:06:10.975Z,101431.06
2018-07-26T10:08:40.191Z,101431.92
2018-07-26T10:11:09.347Z,101425.12
2018-07-26T10:13:38.553Z,101426.98
2018-07-26T10:16:07.763Z,101422.41
2018-07-26T10:18:36.991Z,101422.80
2018-07-26T10:21:06.163Z,101423.77
2018-07-26T10:23:35.356Z,101425.87
2018-07-26T10:26:04.465Z,101419.83
2018-07-26T10:28:33.495Z,101417.86
2018-07-26T10:31:02.747Z,101418.97
2018-07-26T10:33:31.950Z,101422.05
2018-07-26T10:36:01.099Z,101409.30
2018-07-26T10:38:30.230Z,101418.20
2018-07-26T10:40:59.453Z,101412.41
2018-07-26T10:43:28.649Z,101420.58
2018-07-26T10:45:57.830Z,101414.48
2018-07-26T10:48:27.022Z,101414.13
2018-07-26T10:50:56.274Z,101410.66
2018-07-26T10:53:25.412Z,101415.13
2018-07-26T10:55:54.636Z,101410.16
2018-07-26T10:58:23.798Z,101410.66
2018-07-26T11:00:52.899Z,101406.58
2018-07-26T11:03:22.773Z,101407.94
2018-07-26T11:05:51.915Z,101404.72
2018-07-26T11:08:21.282Z,101400.88
2018-07-26T11:10:50.406Z,101404.23
2018-07-26T11:13:19.472Z,101400.77
2018-07-26T11:15:49.561Z,101402.48
2018-07-26T11:18:18.703Z,101403.97
2018-07-26T11:20:47.807Z,101400.39
2018-07-26T11:23:16.879Z,101407.45
2018-07-26T11:25:46.145Z,101403.84
2018-07-26T11:28:15.414Z,101396.07
2018-07-26T11:30:44.838Z,101388.66
2018-07-26T11:33:13.915Z,101393.95
2018-07-26T11:35:43.107Z,101397.28
2018-07-26T11:38:12.314Z,101388.63
2018-07-26T11:40:41.380Z,101391.59
2018-07-26T11:43:10.487Z,101384.53
2018-07-26T11:45:39.563Z,101384.79
2018-07-26T11:48:08.679Z,101384.05
2018-07-26T11:50:37.771Z,101379.85
2018-07-26T11:53:06.998Z,101383.78
2018-07-26T11:55:36.186Z,101378.48
2018-07-26T11:58:05.515Z,101376.01
2018-07-26T12:00:34.589Z,101370.44
2018-07-26T12:03:03.995Z,101371.54
2018-07-26T12:05:33.077Z,101373.40
2018-07-26T12:08:02.280Z,101370.66
2018-07-26T12:10:31.467Z,101366.81
2018-07-26T12:13:01.594Z,101365.45
2018-07-26T12:15:30.795Z,101356.93
2018-07-26T12:17:59.921Z,101352.97
2018-07-26T12:20:29.179Z,101355.69
2018-07-26T12:22:58.280Z,101357.70
2018-07-26T12:25:27.470Z,101358.55
2018-07-26T12:27:56.539Z,101349.39
2018-07-26T12:30:25.675Z,101349.77
2018-07-26T12:32:54.778Z,101346.81
2018-07-26T12:35:23.861Z,101341.45
2018-07-26T12:37:52.935Z,101337.77
2018-07-26T12:40:22.091Z,101334.80
2018-07-26T12:42:51.225Z,101338.88
2018-07-26T12:45:20.350Z,101329.86
2018-07-26T12:47:50.583Z,101332.47
2018-07-26T12:50:19.953Z,101324.30
2018-07-26T12:52:49.075Z,101321.58
2018-07-26T12:55:18.313Z,101322.17
2018-07-26T12:57:47.419Z,101315.10
2018-07-26T13:00:17.024Z,101316.85
2018-07-26T13:02:46.173Z,101314.75
2018-07-26T13:05:15.346Z,101318.06
2018-07-26T13:07:44.439Z,101307.67
2018-07-26T13:10:13.588Z,101303.48
2018-07-26T13:12:42.765Z,101309.04
2018-07-26T13:15:11.963Z,101298.30
2018-07-26T13:17:41.139Z,101294.58
2018-07-26T13:20:10.236Z,101301.02
2018-07-26T13:22:39.361Z,101297.02
2018-07-26T13:25:08.447Z,101296.28
2018-07-26T13:27:37.659Z,101292.67
2018-07-26T13:30:06.899Z,101292.20
2018-07-26T13:32:36.018Z,101285.52
2018-07-26T13:35:05.243Z,101285.52
2018-07-26T13:37:34.434Z,101277.86
2018-07-26T13:40:03.607Z,101274.75
2018-07-26T13:42:32.953Z,101280.70
2018-07-26T13:45:02.133Z,101275.76
2018-07-26T13:47:31.331Z,101269.96
2018-07-26T13:50:00.535Z,101274.75
2018-07-26T13:52:29.734Z,101265.69
2018-07-26T13:54:59.007Z,101268.71
2018-07-26T13:57:28.523Z,101263.36
2018-07-26T13:59:57.947Z,101257.68
2018-07-26T14:02:27.613Z,101260.25
2018-07-26T14:04:56.745Z,101257.83
2018-07-26T14:07:25.942Z,101256.31
2018-07-26T14:09:55.176Z,101255.19
2018-07-26T14:12:24.439Z,101251.73
2018-07-26T14:14:53.640Z,101248.66
2018-07-26T14:17:22.838Z,101240.61
2018-07-26T14:19:52.003Z,101247.64
2018-07-26T14:22:21.120Z,101250.72
2018-07-26T14:24:50.675Z,101245.55
2018-07-26T14:27:19.845Z,101243.21
2018-07-26T14:29:49.143Z,101244.44
2018-07-26T14:32:18.327Z,101244.22
2018-07-26T14:34:47.495Z,101239.36
2018-07-26T14:37:16.955Z,101239.63
2018-07-26T14:39:46.099Z,101243.78
2018-07-26T14:42:15.230Z,101235.38
2018-07-26T14:44:44.358Z,101234.64
2018-07-26T14:47:13.587Z,101235.89
2018-07-26T14:49:43.153Z,101232.31
2018-07-26T14:52:12.291Z,101229.83
2018-07-26T14:54:41.422Z,101226.09
2018-07-26T14:57:10.548Z,101233.13
2018-07-26T14:59:39.840Z,101228.34
2018-07-26T15:02:09.015Z,101227.61
2018-07-26T15:04:38.237Z,101217.34
2018-07-26T15:07:07.439Z,101218.08
2018-07-26T15:09:36.833Z,101220.65
2018-07-26T15:12:06.111Z,101218.44
2018-07-26T15:14:35.301Z,101217.22
2018-07-26T15:17:05.557Z,101213.72
2018-07-26T15:19:34.588Z,101211.23
2018-07-26T15:22:03.727Z,101204.15
2018-07-26T15:24:33.954Z,101203.88
2018-07-26T15:27:03.269Z,101203.40
2018-07-26T15:29:32.455Z,101207.33
2018-07-26T15:32:01.644Z,101206.59
2018-07-26T15:34:30.853Z,101205.47
2018-07-26T15:37:00.044Z,101210.44
2018-07-26T15:39:29.243Z,101205.62
2018-07-26T15:41:58.312Z,101197.22
2018-07-26T15:44:27.441Z,101196.36
2018-07-26T15:46:56.643Z,101192.28
2018-07-26T15:49:26.020Z,101188.67
2018-07-26T15:51:55.239Z,101188.67
2018-07-26T15:54:24.448Z,101192.00
2018-07-26T15:56:53.595Z,101189.28
2018-07-26T15:59:22.899Z,101184.41
2018-07-26T16:01:52.023Z,101180.61
2018-07-26T16:04:22.135Z,101181.97
2018-07-26T16:06:51.362Z,101184.34
2018-07-26T16:09:20.540Z,101187.92
2018-07-26T16:11:49.730Z,101189.28
2018-07-26T16:14:18.836Z,101190.77
2018-07-26T16:16:48.039Z,101191.27
2018-07-26T16:19:17.229Z,101201.25
2018-07-26T16:21:46.323Z,101195.08
2018-07-26T16:24:15.751Z,101187.14
2018-07-26T16:26:44.896Z,101191.60
2018-07-26T16:29:14.049Z,101187.64
2018-07-26T16:31:43.158Z,101182.58
2018-07-26T16:34:12.272Z,101179.47
2018-07-26T16:36:41.384Z,101178.23
2018-07-26T16:39:12.059Z,101184.57
2018-07-26T16:41:41.211Z,101178.84
2018-07-26T16:44:10.322Z,101180.09
2018-07-26T16:46:39.485Z,101178.56
2018-07-26T16:49:08.985Z,101173.00
2018-07-26T16:51:38.133Z,101175.67
2018-07-26T16:54:07.357Z,101176.91
2018-07-26T16:56:36.517Z,101172.59
2018-07-26T16:59:05.773Z,101166.92
2018-07-26T17:01:34.933Z,101167.55
2018-07-26T17:04:04.151Z,101171.12
2018-07-26T17:06:33.333Z,101168.05
2018-07-26T17:09:02.482Z,101172.49
2018-07-26T17:11:31.620Z,101167.55
2018-07-26T17:14:00.845Z,101160.74
2018-07-26T17:16:29.992Z,101164.83
2018-07-26T17:18:59.113Z,101167.55
2018-07-26T17:21:28.512Z,101170.27
2018-07-26T17:23:57.530Z,101168.53
2018-07-26T17:26:26.688Z,101162.61
2018-07-26T17:28:55.885Z,101164.95
2018-07-26T17:31:25.208Z,101167.33
2018-07-26T17:33:54.980Z,101177.94
2018-07-26T17:36:24.148Z,101189.56
2018-07-26T17:38:53.480Z,101191.91
2018-07-26T17:41:22.598Z,101190.54
2018-07-26T17:43:52.535Z,101194.16
2018-07-26T17:46:21.836Z,101191.27
2018-07-26T17:48:50.995Z,101202.67
2018-07-26T17:51:20.119Z,101216.39
2018-07-26T17:53:49.315Z,101208.05
2018-07-26T17:56:18.493Z,101207.79
2018-07-26T17:58:47.611Z,101209.03
2018-07-26T18:01:16.781Z,101215.08
2018-07-26T18:03:45.917Z,101212.13
2018-07-26T18:06:15.123Z,101227.59
2018-07-26T18:08:44.338Z,101248.52
2018-07-26T18:11:13.495Z,101266.45
2018-07-26T18:13:42.690Z,101284.89
2018-07-26T18:16:12.098Z,101320.66
2018-07-26T18:18:41.238Z,101372.06
2018-07-26T18:25:48.126Z,101507.20
2018-07-26T18:28:17.298Z,101484.23
2018-07-26T18:30:46.514Z,101396.09
2018-07-26T18:33:16.562Z,101385.45
2018-07-26T18:35:45.711Z,101352.40
2018-07-26T18:38:14.817Z,101352.37
2018-07-26T18:40:44.194Z,101343.94
2018-07-26T18:43:13.308Z,101332.32
2018-07-26T18:45:42.502Z,101331.58
2018-07-26T18:48:11.717Z,101333.53
2018-07-26T18:50:40.893Z,101332.56
2018-07-26T18:53:10.216Z,101342.44
2018-07-26T18:55:39.393Z,101345.90
2018-07-26T18:58:08.512Z,101344.18
2018-07-26T19:00:37.711Z,101346.55
2018-07-26T19:03:07.013Z,101346.05
2018-07-26T19:05:36.215Z,101344.69
2018-07-26T19:08:06.373Z,101348.65
2018-07-26T19:10:35.565Z,101346.58
2018-07-26T19:13:04.819Z,101345.57
2018-07-26T19:15:33.993Z,101340.86
2018-07-26T19:18:03.216Z,101338.14
2018-07-26T19:20:32.394Z,101339.27
2018-07-26T19:23:01.518Z,101333.35
2018-07-26T19:25:30.696Z,101333.34
2018-07-26T19:27:59.886Z,101330.62
2018-07-26T19:30:29.158Z,101327.28
2018-07-26T19:32:58.280Z,101324.06
2018-07-26T19:35:27.435Z,101316.28
2018-07-26T19:37:56.779Z,101309.33
2018-07-26T19:40:25.866Z,101307.35
2018-07-26T19:42:54.987Z,101311.70
2018-07-26T19:45:24.200Z,101321.58
2018-07-26T19:47:53.416Z,101315.43
2018-07-26T19:50:22.547Z,101310.45
2018-07-26T19:52:51.623Z,101310.96
2018-07-26T19:55:20.760Z,101312.32
2018-07-26T19:57:49.995Z,101303.30
2018-07-26T20:00:19.184Z,101302.70
2018-07-26T20:02:48.391Z,101294.90
2018-07-26T20:05:17.691Z,101285.38
2018-07-26T20:07:46.879Z,101288.58
2018-07-26T20:10:16.042Z,101295.14
2018-07-26T20:12:45.166Z,101290.82
2018-07-26T20:15:14.322Z,101284.76
2018-07-26T20:17:43.444Z,101281.41
2018-07-26T20:20:12.974Z,101275.38
2018-07-26T20:22:42.134Z,101274.02
2018-07-26T20:25:11.276Z,101274.02
2018-07-26T20:27:40.474Z,101268.34
2018-07-26T20:30:10.393Z,101271.92
2018-07-26T20:32:40.001Z,101269.97
2018-07-26T20:35:09.645Z,101275.53
2018-07-26T20:37:38.727Z,101283.34
2018-07-26T20:40:11.145Z,101281.85
2018-07-26T20:42:40.538Z,101283.33
2018-07-26T20:45:11.044Z,101282.86
2018-07-26T20:47:40.242Z,101284.59
2018-07-26T20:50:10.052Z,101288.91
2018-07-26T20:52:39.560Z,101291.02
2018-07-26T20:55:08.702Z,101293.85
2018-07-26T20:57:37.934Z,101294.62
2018-07-26T21:00:09.326Z,101297.70
2018-07-26T21:02:38.450Z,101293.61
2018-07-26T21:05:07.614Z,101297.34
2018-07-26T21:07:36.759Z,101292.87
2018-07-26T21:10:07.115Z,101295.23
2018-07-26T21:12:36.319Z,101293.48
2018-07-26T21:15:06.653Z,101295.70
2018-07-26T21:17:36.164Z,101308.19
2018-07-26T21:20:05.553Z,101299.17
2018-07-26T21:22:35.196Z,101303.50
2018-07-26T21:25:04.466Z,101307.58
2018-07-26T21:27:33.566Z,101307.69
2018-07-26T21:30:02.686Z,101309.55
2018-07-26T21:32:31.903Z,101304.62
2018-07-26T21:35:01.088Z,101298.32
2018-07-26T21:37:30.487Z,101300.53
2018-07-26T21:39:59.675Z,101300.65
2018-07-26T21:42:28.904Z,101304.37
2018-07-26T21:44:58.037Z,101306.00
2018-07-26T21:47:27.319Z,101301.04
2018-07-26T21:49:56.446Z,101304.27
2018-07-26T21:52:25.576Z,101293.89
2018-07-26T21:54:54.750Z,101295.75
2018-07-26T21:57:23.843Z,101292.88
2018-07-26T21:59:52.942Z,101293.50
2018-07-26T22:02:22.077Z,101289.18
2018-07-26T22:04:51.347Z,101296.59
2018-07-26T22:07:20.726Z,101298.21
2018-07-26T22:09:49.847Z,101294.52
2018-07-26T22:12:19.079Z,101293.52
2018-07-26T22:14:48.374Z,101293.63
2018-07-26T22:17:17.540Z,101295.38
2018-07-26T22:19:46.685Z,101293.53
2018-07-26T22:22:15.887Z,101300.18
2018-07-26T22:24:45.080Z,101298.83
2018-07-26T22:27:14.219Z,101297.86
2018-07-26T22:29:43.539Z,101299.08
2018-07-26T22:32:12.771Z,101296.86
2018-07-26T22:34:41.955Z,101293.05
2018-07-26T22:37:11.165Z,101297.72
2018-07-26T22:39:40.319Z,101296.25
2018-07-26T22:42:09.459Z,101301.69
2018-07-26T22:44:38.610Z,101301.07
2018-07-26T22:47:07.709Z,101297.72
2018-07-26T22:49:36.796Z,101299.58
2018-07-26T22:52:05.943Z,101307.98
2018-07-26T22:54:35.115Z,101299.94
2018-07-26T22:57:04.283Z,101303.41
2018-07-26T22:59:33.379Z,101296.88
2018-07-26T23:02:02.519Z,101298.11
2018-07-26T23:04:31.618Z,101301.32
2018-07-26T23:07:00.766Z,101296.25
2018-07-26T23:09:29.826Z,101289.96
2018-07-26T23:11:59.022Z,101291.94
2018-07-26T23:14:28.200Z,101289.08
2018-07-26T23:16:57.392Z,101284.13
2018-07-26T23:19:26.569Z,101287.31
2018-07-26T23:21:55.635Z,101285.86
2018-07-26T23:24:24.776Z,101282.03
2018-07-26T23:26:53.931Z,101284.50
2018-07-26T23:29:23.055Z,101276.96
2018-07-26T23:31:52.194Z,101278.29
2018-07-26T23:34:21.357Z,101273.72
2018-07-26T23:36:50.534Z,101275.58
2018-07-26T23:39:19.683Z,101278.30
2018-07-26T23:41:48.719Z,101273.97
2018-07-26T23:44:17.830Z,101273.97
2018-07-26T23:46:46.934Z,101274.33
2018-07-26T23:49:16.020Z,101275.83
2018-07-26T23:51:45.094Z,101273.97
2018-07-26T23:54:14.167Z,101268.05
2018-07-26T23:56:43.258Z,101265.83
2018-07-26T23:59:12.442Z,101271.01
